sensor_id;sensor_type;location;lat;lon;timestamp;P1;durP1;ratioP1;P2;durP2;ratioP2
15358;SDS011;7779;49.596;11.070;2023-06-22T00:02:16;5.80;;;5.20;;
15358;SDS011;7779;49.596;11.070;2023-06-22T00:04:43;6.13;;;5.40;;
15358;SDS011;7779;49.596;11.070;2023-06-22T00:07:09;5.73;;;5.13;;
15358;SDS011;7779;49.596;11.070;2023-06-22T00:09:35;7.43;;;5.07;;
15358;SDS011;7779;49.596;11.070;2023-06-22T00:12:01;4.83;;;4.43;;
15358;SDS011;7779;49.596;11.070;2023-06-22T00:14:27;5.53;;;5.03;;
15358;SDS011;7779;49.596;11.070;2023-06-22T00:16:53;6.17;;;5.17;;
15358;SDS011;7779;49.596;11.070;2023-06-22T00:19:22;5.37;;;4.70;;
15358;SDS011;7779;49.596;11.070;2023-06-22T00:21:48;5.77;;;4.90;;
15358;SDS011;7779;49.596;11.070;2023-06-22T00:24:18;5.50;;;4.50;;
15358;SDS011;7779;49.596;11.070;2023-06-22T00:26:45;5.27;;;4.77;;
15358;SDS011;7779;49.596;11.070;2023-06-22T00:29:12;5.40;;;4.90;;
15358;SDS011;7779;49.596;11.070;2023-06-22T00:31:37;5.60;;;5.10;;
15358;SDS011;7779;49.596;11.070;2023-06-22T00:34:03;5.60;;;5.00;;
15358;SDS011;7779;49.596;11.070;2023-06-22T00:36:32;5.30;;;4.80;;
15358;SDS011;7779;49.596;11.070;2023-06-22T00:38:58;5.57;;;4.87;;
15358;SDS011;7779;49.596;11.070;2023-06-22T00:41:24;5.30;;;4.80;;
15358;SDS011;7779;49.596;11.070;2023-06-22T00:43:53;5.27;;;4.77;;
15358;SDS011;7779;49.596;11.070;2023-06-22T00:46:20;5.40;;;4.90;;
15358;SDS011;7779;49.596;11.070;2023-06-22T00:48:47;5.77;;;5.13;;
15358;SDS011;7779;49.596;11.070;2023-06-22T00:51:15;5.07;;;4.67;;
15358;SDS011;7779;49.596;11.070;2023-06-22T00:53:41;5.50;;;5.00;;
15358;SDS011;7779;49.596;11.070;2023-06-22T00:56:09;7.60;;;5.00;;
15358;SDS011;7779;49.596;11.070;2023-06-22T00:58:38;5.87;;;5.37;;
15358;SDS011;7779;49.596;11.070;2023-06-22T01:01:06;5.67;;;5.17;;
15358;SDS011;7779;49.596;11.070;2023-06-22T01:03:32;5.23;;;4.77;;
15358;SDS011;7779;49.596;11.070;2023-06-22T01:06:02;6.77;;;5.23;;
15358;SDS011;7779;49.596;11.070;2023-06-22T01:08:42;5.80;;;4.50;;
15358;SDS011;7779;49.596;11.070;2023-06-22T01:11:29;5.97;;;4.73;;
15358;SDS011;7779;49.596;11.070;2023-06-22T01:14:10;5.53;;;5.03;;
15358;SDS011;7779;49.596;11.070;2023-06-22T01:16:44;5.33;;;4.83;;
15358;SDS011;7779;49.596;11.070;2023-06-22T01:22:08;5.63;;;5.13;;
15358;SDS011;7779;49.596;11.070;2023-06-22T01:27:59;6.17;;;4.93;;
15358;SDS011;7779;49.596;11.070;2023-06-22T01:30:58;5.30;;;4.80;;
15358;SDS011;7779;49.596;11.070;2023-06-22T01:33:32;5.53;;;5.00;;
15358;SDS011;7779;49.596;11.070;2023-06-22T01:36:01;5.87;;;5.07;;
15358;SDS011;7779;49.596;11.070;2023-06-22T01:38:29;8.60;;;5.17;;
15358;SDS011;7779;49.596;11.070;2023-06-22T01:40:56;5.90;;;5.23;;
15358;SDS011;7779;49.596;11.070;2023-06-22T01:43:24;5.30;;;4.80;;
15358;SDS011;7779;49.596;11.070;2023-06-22T01:45:52;5.13;;;4.60;;
15358;SDS011;7779;49.596;11.070;2023-06-22T01:48:22;5.77;;;5.27;;
15358;SDS011;7779;49.596;11.070;2023-06-22T01:50:49;5.77;;;5.07;;
15358;SDS011;7779;49.596;11.070;2023-06-22T01:53:16;5.57;;;5.07;;
15358;SDS011;7779;49.596;11.070;2023-06-22T01:55:41;6.23;;;5.20;;
15358;SDS011;7779;49.596;11.070;2023-06-22T01:58:07;5.47;;;4.97;;
15358;SDS011;7779;49.596;11.070;2023-06-22T02:00:33;5.60;;;5.10;;
15358;SDS011;7779;49.596;11.070;2023-06-22T02:03:11;6.20;;;4.90;;
15358;SDS011;7779;49.596;11.070;2023-06-22T02:05:49;5.73;;;5.13;;
15358;SDS011;7779;49.596;11.070;2023-06-22T02:08:24;6.00;;;5.40;;
15358;SDS011;7779;49.596;11.070;2023-06-22T02:10:58;5.87;;;5.27;;
15358;SDS011;7779;49.596;11.070;2023-06-22T02:13:26;5.70;;;5.20;;
15358;SDS011;7779;49.596;11.070;2023-06-22T02:15:53;5.83;;;5.33;;
15358;SDS011;7779;49.596;11.070;2023-06-22T02:18:19;5.83;;;5.23;;
15358;SDS011;7779;49.596;11.070;2023-06-22T02:20:45;5.70;;;5.20;;
15358;SDS011;7779;49.596;11.070;2023-06-22T02:23:11;5.57;;;5.07;;
15358;SDS011;7779;49.596;11.070;2023-06-22T02:25:37;4.67;;;4.27;;
15358;SDS011;7779;49.596;11.070;2023-06-22T02:28:03;5.00;;;4.50;;
15358;SDS011;7779;49.596;11.070;2023-06-22T02:30:29;5.73;;;5.20;;
15358;SDS011;7779;49.596;11.070;2023-06-22T02:32:55;5.40;;;4.90;;
15358;SDS011;7779;49.596;11.070;2023-06-22T02:35:26;5.83;;;5.33;;
15358;SDS011;7779;49.596;11.070;2023-06-22T02:37:57;6.50;;;5.43;;
15358;SDS011;7779;49.596;11.070;2023-06-22T02:40:24;5.90;;;5.30;;
15358;SDS011;7779;49.596;11.070;2023-06-22T02:42:50;5.27;;;4.77;;
15358;SDS011;7779;49.596;11.070;2023-06-22T02:45:16;5.53;;;5.03;;
15358;SDS011;7779;49.596;11.070;2023-06-22T02:47:42;5.77;;;5.17;;
15358;SDS011;7779;49.596;11.070;2023-06-22T02:50:08;5.30;;;4.80;;
15358;SDS011;7779;49.596;11.070;2023-06-22T02:52:35;5.63;;;5.13;;
15358;SDS011;7779;49.596;11.070;2023-06-22T02:55:01;6.37;;;5.77;;
15358;SDS011;7779;49.596;11.070;2023-06-22T02:57:27;6.23;;;5.60;;
15358;SDS011;7779;49.596;11.070;2023-06-22T02:59:55;5.93;;;5.30;;
15358;SDS011;7779;49.596;11.070;2023-06-22T03:02:20;5.60;;;5.10;;
15358;SDS011;7779;49.596;11.070;2023-06-22T03:04:47;5.47;;;4.97;;
15358;SDS011;7779;49.596;11.070;2023-06-22T03:07:14;5.10;;;4.67;;
15358;SDS011;7779;49.596;11.070;2023-06-22T03:09:42;5.83;;;4.90;;
15358;SDS011;7779;49.596;11.070;2023-06-22T03:12:08;5.67;;;5.03;;
15358;SDS011;7779;49.596;11.070;2023-06-22T03:14:52;5.90;;;4.90;;
15358;SDS011;7779;49.596;11.070;2023-06-22T03:17:18;6.77;;;4.87;;
15358;SDS011;7779;49.596;11.070;2023-06-22T03:19:44;5.73;;;5.20;;
15358;SDS011;7779;49.596;11.070;2023-06-22T03:22:09;7.40;;;5.57;;
15358;SDS011;7779;49.596;11.070;2023-06-22T03:24:35;6.20;;;5.60;;
15358;SDS011;7779;49.596;11.070;2023-06-22T03:27:02;6.77;;;5.47;;
15358;SDS011;7779;49.596;11.070;2023-06-22T03:29:30;6.50;;;5.90;;
15358;SDS011;7779;49.596;11.070;2023-06-22T03:31:56;7.07;;;5.80;;
15358;SDS011;7779;49.596;11.070;2023-06-22T03:34:22;6.97;;;6.27;;
15358;SDS011;7779;49.596;11.070;2023-06-22T03:36:51;6.63;;;6.03;;
15358;SDS011;7779;49.596;11.070;2023-06-22T03:39:17;7.50;;;6.80;;
15358;SDS011;7779;49.596;11.070;2023-06-22T03:41:43;7.60;;;6.90;;
15358;SDS011;7779;49.596;11.070;2023-06-22T03:44:08;7.07;;;6.47;;
15358;SDS011;7779;49.596;11.070;2023-06-22T03:46:37;7.70;;;7.00;;
15358;SDS011;7779;49.596;11.070;2023-06-22T03:49:03;7.00;;;6.40;;
15358;SDS011;7779;49.596;11.070;2023-06-22T03:51:30;7.07;;;6.37;;
15358;SDS011;7779;49.596;11.070;2023-06-22T03:53:57;6.90;;;6.30;;
15358;SDS011;7779;49.596;11.070;2023-06-22T03:56:23;6.63;;;5.87;;
15358;SDS011;7779;49.596;11.070;2023-06-22T03:58:48;6.53;;;5.90;;
15358;SDS011;7779;49.596;11.070;2023-06-22T04:01:14;6.40;;;5.80;;
15358;SDS011;7779;49.596;11.070;2023-06-22T04:03:42;7.53;;;6.07;;
15358;SDS011;7779;49.596;11.070;2023-06-22T04:06:08;6.00;;;5.40;;
15358;SDS011;7779;49.596;11.070;2023-06-22T04:08:33;5.93;;;5.33;;
15358;SDS011;7779;49.596;11.070;2023-06-22T04:10:59;6.10;;;5.50;;
15358;SDS011;7779;49.596;11.070;2023-06-22T04:13:25;6.40;;;5.87;;
15358;SDS011;7779;49.596;11.070;2023-06-22T04:15:51;8.10;;;6.10;;
15358;SDS011;7779;49.596;11.070;2023-06-22T04:18:16;6.53;;;5.83;;
15358;SDS011;7779;49.596;11.070;2023-06-22T04:20:42;6.33;;;5.73;;
15358;SDS011;7779;49.596;11.070;2023-06-22T04:23:10;6.50;;;5.90;;
15358;SDS011;7779;49.596;11.070;2023-06-22T04:25:35;6.50;;;5.90;;
15358;SDS011;7779;49.596;11.070;2023-06-22T04:28:01;6.67;;;6.00;;
15358;SDS011;7779;49.596;11.070;2023-06-22T04:30:28;6.57;;;5.87;;
15358;SDS011;7779;49.596;11.070;2023-06-22T04:32:56;6.83;;;6.23;;
15358;SDS011;7779;49.596;11.070;2023-06-22T04:35:23;6.30;;;5.70;;
15358;SDS011;7779;49.596;11.070;2023-06-22T04:37:49;6.03;;;5.53;;
15358;SDS011;7779;49.596;11.070;2023-06-22T04:40:20;6.47;;;5.87;;
15358;SDS011;7779;49.596;11.070;2023-06-22T04:42:48;5.97;;;5.37;;
15358;SDS011;7779;49.596;11.070;2023-06-22T04:45:17;6.43;;;5.83;;
15358;SDS011;7779;49.596;11.070;2023-06-22T04:47:43;6.17;;;5.57;;
15358;SDS011;7779;49.596;11.070;2023-06-22T04:50:13;6.43;;;5.27;;
15358;SDS011;7779;49.596;11.070;2023-06-22T04:52:39;6.10;;;5.60;;
15358;SDS011;7779;49.596;11.070;2023-06-22T04:55:05;5.53;;;5.03;;
15358;SDS011;7779;49.596;11.070;2023-06-22T04:57:32;6.27;;;5.67;;
15358;SDS011;7779;49.596;11.070;2023-06-22T04:59:58;6.37;;;5.77;;
15358;SDS011;7779;49.596;11.070;2023-06-22T05:02:37;6.40;;;5.80;;
15358;SDS011;7779;49.596;11.070;2023-06-22T05:05:06;6.30;;;5.73;;
15358;SDS011;7779;49.596;11.070;2023-06-22T05:07:36;6.80;;;5.90;;
15358;SDS011;7779;49.596;11.070;2023-06-22T05:10:02;6.83;;;6.13;;
15358;SDS011;7779;49.596;11.070;2023-06-22T05:12:30;7.60;;;6.20;;
15358;SDS011;7779;49.596;11.070;2023-06-22T05:14:56;6.73;;;6.13;;
15358;SDS011;7779;49.596;11.070;2023-06-22T05:17:22;6.63;;;6.03;;
15358;SDS011;7779;49.596;11.070;2023-06-22T05:19:48;7.37;;;6.60;;
15358;SDS011;7779;49.596;11.070;2023-06-22T05:22:14;6.10;;;5.50;;
15358;SDS011;7779;49.596;11.070;2023-06-22T05:24:41;6.30;;;5.70;;
15358;SDS011;7779;49.596;11.070;2023-06-22T05:27:08;6.40;;;5.50;;
15358;SDS011;7779;49.596;11.070;2023-06-22T05:29:36;6.13;;;5.63;;
15358;SDS011;7779;49.596;11.070;2023-06-22T05:32:03;6.00;;;5.50;;
15358;SDS011;7779;49.596;11.070;2023-06-22T05:34:29;6.13;;;5.53;;
15358;SDS011;7779;49.596;11.070;2023-06-22T05:36:55;5.87;;;5.37;;
15358;SDS011;7779;49.596;11.070;2023-06-22T05:39:20;5.90;;;5.40;;
15358;SDS011;7779;49.596;11.070;2023-06-22T05:41:46;6.10;;;5.60;;
15358;SDS011;7779;49.596;11.070;2023-06-22T05:44:12;5.90;;;5.40;;
15358;SDS011;7779;49.596;11.070;2023-06-22T05:46:41;6.10;;;5.50;;
15358;SDS011;7779;49.596;11.070;2023-06-22T05:49:09;6.17;;;5.67;;
15358;SDS011;7779;49.596;11.070;2023-06-22T05:51:36;5.80;;;5.30;;
15358;SDS011;7779;49.596;11.070;2023-06-22T05:54:02;6.23;;;5.63;;
15358;SDS011;7779;49.596;11.070;2023-06-22T05:56:28;5.40;;;5.00;;
15358;SDS011;7779;49.596;11.070;2023-06-22T05:58:53;6.17;;;5.57;;
15358;SDS011;7779;49.596;11.070;2023-06-22T06:01:19;5.57;;;5.13;;
15358;SDS011;7779;49.596;11.070;2023-06-22T06:03:45;6.33;;;5.67;;
15358;SDS011;7779;49.596;11.070;2023-06-22T06:06:11;6.40;;;5.80;;
15358;SDS011;7779;49.596;11.070;2023-06-22T06:08:38;6.20;;;5.70;;
15358;SDS011;7779;49.596;11.070;2023-06-22T06:11:04;6.17;;;5.57;;
15358;SDS011;7779;49.596;11.070;2023-06-22T06:13:30;6.20;;;5.33;;
15358;SDS011;7779;49.596;11.070;2023-06-22T06:15:56;5.57;;;5.07;;
15358;SDS011;7779;49.596;11.070;2023-06-22T06:18:22;6.00;;;5.50;;
15358;SDS011;7779;49.596;11.070;2023-06-22T06:20:48;5.87;;;5.37;;
15358;SDS011;7779;49.596;11.070;2023-06-22T06:23:14;5.73;;;5.23;;
15358;SDS011;7779;49.596;11.070;2023-06-22T06:25:40;6.03;;;5.53;;
15358;SDS011;7779;49.596;11.070;2023-06-22T06:28:05;5.90;;;5.40;;
15358;SDS011;7779;49.596;11.070;2023-06-22T06:30:31;5.13;;;4.70;;
15358;SDS011;7779;49.596;11.070;2023-06-22T06:32:57;5.50;;;5.00;;
15358;SDS011;7779;49.596;11.070;2023-06-22T06:35:23;5.07;;;4.67;;
15358;SDS011;7779;49.596;11.070;2023-06-22T06:37:50;5.77;;;4.90;;
15358;SDS011;7779;49.596;11.070;2023-06-22T06:40:16;5.80;;;5.20;;
15358;SDS011;7779;49.596;11.070;2023-06-22T06:42:44;6.23;;;5.23;;
15358;SDS011;7779;49.596;11.070;2023-06-22T06:45:16;5.20;;;4.70;;
15358;SDS011;7779;49.596;11.070;2023-06-22T06:47:50;5.20;;;4.80;;
15358;SDS011;7779;49.596;11.070;2023-06-22T06:50:17;5.73;;;5.13;;
15358;SDS011;7779;49.596;11.070;2023-06-22T06:52:43;5.93;;;5.23;;
15358;SDS011;7779;49.596;11.070;2023-06-22T06:55:09;6.00;;;5.40;;
15358;SDS011;7779;49.596;11.070;2023-06-22T06:57:39;5.43;;;4.93;;
15358;SDS011;7779;49.596;11.070;2023-06-22T07:00:10;5.47;;;4.97;;
15358;SDS011;7779;49.596;11.070;2023-06-22T07:02:42;5.07;;;4.63;;
15358;SDS011;7779;49.596;11.070;2023-06-22T07:05:09;5.23;;;4.83;;
15358;SDS011;7779;49.596;11.070;2023-06-22T07:07:36;5.13;;;4.73;;
15358;SDS011;7779;49.596;11.070;2023-06-22T07:10:04;5.83;;;5.23;;
15358;SDS011;7779;49.596;11.070;2023-06-22T07:12:31;5.43;;;4.93;;
15358;SDS011;7779;49.596;11.070;2023-06-22T07:15:09;5.40;;;4.87;;
15358;SDS011;7779;49.596;11.070;2023-06-22T07:17:36;5.20;;;4.80;;
15358;SDS011;7779;49.596;11.070;2023-06-22T07:20:02;4.90;;;4.50;;
15358;SDS011;7779;49.596;11.070;2023-06-22T07:22:37;5.10;;;4.70;;
15358;SDS011;7779;49.596;11.070;2023-06-22T07:25:07;4.97;;;4.57;;
15358;SDS011;7779;49.596;11.070;2023-06-22T07:27:35;5.10;;;4.70;;
15358;SDS011;7779;49.596;11.070;2023-06-22T07:30:09;5.70;;;5.17;;
15358;SDS011;7779;49.596;11.070;2023-06-22T07:32:36;5.10;;;4.60;;
15358;SDS011;7779;49.596;11.070;2023-06-22T07:35:02;5.43;;;4.93;;
15358;SDS011;7779;49.596;11.070;2023-06-22T07:37:29;4.70;;;4.30;;
15358;SDS011;7779;49.596;11.070;2023-06-22T07:39:55;5.30;;;4.80;;
15358;SDS011;7779;49.596;11.070;2023-06-22T07:42:26;5.27;;;4.43;;
15358;SDS011;7779;49.596;11.070;2023-06-22T07:44:54;4.33;;;3.93;;
15358;SDS011;7779;49.596;11.070;2023-06-22T07:47:19;4.03;;;3.73;;
15358;SDS011;7779;49.596;11.070;2023-06-22T07:49:50;5.10;;;4.30;;
15358;SDS011;7779;49.596;11.070;2023-06-22T07:52:15;4.53;;;3.83;;
15358;SDS011;7779;49.596;11.070;2023-06-22T07:54:41;4.93;;;4.47;;
15358;SDS011;7779;49.596;11.070;2023-06-22T07:57:07;4.07;;;3.77;;
15358;SDS011;7779;49.596;11.070;2023-06-22T07:59:32;4.40;;;4.00;;
15358;SDS011;7779;49.596;11.070;2023-06-22T08:01:58;4.20;;;3.90;;
15358;SDS011;7779;49.596;11.070;2023-06-22T08:04:24;4.40;;;4.00;;
15358;SDS011;7779;49.596;11.070;2023-06-22T08:06:52;3.87;;;3.53;;
15358;SDS011;7779;49.596;11.070;2023-06-22T08:09:19;4.93;;;4.40;;
15358;SDS011;7779;49.596;11.070;2023-06-22T08:11:44;3.97;;;3.63;;
15358;SDS011;7779;49.596;11.070;2023-06-22T08:14:10;3.93;;;3.63;;
15358;SDS011;7779;49.596;11.070;2023-06-22T08:16:36;4.23;;;3.83;;
15358;SDS011;7779;49.596;11.070;2023-06-22T08:19:01;4.23;;;3.83;;
15358;SDS011;7779;49.596;11.070;2023-06-22T08:21:27;4.27;;;3.97;;
15358;SDS011;7779;49.596;11.070;2023-06-22T08:23:53;4.33;;;3.90;;
15358;SDS011;7779;49.596;11.070;2023-06-22T08:26:19;3.73;;;3.43;;
15358;SDS011;7779;49.596;11.070;2023-06-22T08:28:45;4.10;;;3.80;;
15358;SDS011;7779;49.596;11.070;2023-06-22T08:31:10;3.57;;;3.27;;
15358;SDS011;7779;49.596;11.070;2023-06-22T08:33:37;4.23;;;3.83;;
15358;SDS011;7779;49.596;11.070;2023-06-22T08:36:03;3.93;;;3.63;;
15358;SDS011;7779;49.596;11.070;2023-06-22T08:38:31;4.33;;;3.53;;
15358;SDS011;7779;49.596;11.070;2023-06-22T08:40:57;4.27;;;3.80;;
15358;SDS011;7779;49.596;11.070;2023-06-22T08:43:22;4.40;;;4.00;;
15358;SDS011;7779;49.596;11.070;2023-06-22T08:45:48;3.87;;;3.43;;
15358;SDS011;7779;49.596;11.070;2023-06-22T08:48:14;3.93;;;3.63;;
15358;SDS011;7779;49.596;11.070;2023-06-22T08:50:39;3.47;;;3.17;;
15358;SDS011;7779;49.596;11.070;2023-06-22T08:53:05;4.03;;;3.73;;
15358;SDS011;7779;49.596;11.070;2023-06-22T08:55:31;4.07;;;3.67;;
15358;SDS011;7779;49.596;11.070;2023-06-22T08:57:57;3.93;;;3.63;;
15358;SDS011;7779;49.596;11.070;2023-06-22T09:00:22;4.20;;;3.80;;
15358;SDS011;7779;49.596;11.070;2023-06-22T09:02:48;4.20;;;3.80;;
15358;SDS011;7779;49.596;11.070;2023-06-22T09:05:14;3.77;;;3.47;;
15358;SDS011;7779;49.596;11.070;2023-06-22T09:07:41;4.27;;;3.87;;
15358;SDS011;7779;49.596;11.070;2023-06-22T09:10:07;4.30;;;3.90;;
15358;SDS011;7779;49.596;11.070;2023-06-22T09:12:33;4.17;;;3.67;;
15358;SDS011;7779;49.596;11.070;2023-06-22T09:15:00;4.13;;;3.73;;
15358;SDS011;7779;49.596;11.070;2023-06-22T09:17:26;3.97;;;3.57;;
15358;SDS011;7779;49.596;11.070;2023-06-22T09:19:52;4.20;;;3.47;;
15358;SDS011;7779;49.596;11.070;2023-06-22T09:22:18;3.87;;;3.57;;
15358;SDS011;7779;49.596;11.070;2023-06-22T09:24:44;4.67;;;4.13;;
15358;SDS011;7779;49.596;11.070;2023-06-22T09:27:10;4.57;;;4.00;;
15358;SDS011;7779;49.596;11.070;2023-06-22T09:29:35;4.10;;;3.80;;
15358;SDS011;7779;49.596;11.070;2023-06-22T09:32:01;4.13;;;3.80;;
15358;SDS011;7779;49.596;11.070;2023-06-22T09:34:27;5.30;;;3.93;;
15358;SDS011;7779;49.596;11.070;2023-06-22T09:36:53;4.33;;;3.93;;
15358;SDS011;7779;49.596;11.070;2023-06-22T09:39:20;4.07;;;3.67;;
15358;SDS011;7779;49.596;11.070;2023-06-22T09:41:45;4.10;;;3.70;;
15358;SDS011;7779;49.596;11.070;2023-06-22T09:44:11;4.07;;;3.77;;
15358;SDS011;7779;49.596;11.070;2023-06-22T09:46:37;4.20;;;3.80;;
15358;SDS011;7779;49.596;11.070;2023-06-22T09:49:03;3.97;;;3.60;;
15358;SDS011;7779;49.596;11.070;2023-06-22T09:51:28;4.00;;;3.60;;
15358;SDS011;7779;49.596;11.070;2023-06-22T09:53:54;5.40;;;4.00;;
15358;SDS011;7779;49.596;11.070;2023-06-22T09:56:20;4.63;;;3.90;;
15358;SDS011;7779;49.596;11.070;2023-06-22T09:58:46;5.17;;;4.00;;
15358;SDS011;7779;49.596;11.070;2023-06-22T10:01:12;4.53;;;3.80;;
15358;SDS011;7779;49.596;11.070;2023-06-22T10:03:41;4.10;;;3.63;;
15358;SDS011;7779;49.596;11.070;2023-06-22T10:06:07;4.60;;;3.90;;
15358;SDS011;7779;49.596;11.070;2023-06-22T10:08:34;4.90;;;3.80;;
15358;SDS011;7779;49.596;11.070;2023-06-22T10:11:01;4.27;;;3.87;;
15358;SDS011;7779;49.596;11.070;2023-06-22T10:13:28;4.67;;;4.27;;
15358;SDS011;7779;49.596;11.070;2023-06-22T10:15:54;4.77;;;3.97;;
15358;SDS011;7779;49.596;11.070;2023-06-22T10:18:20;4.20;;;3.80;;
15358;SDS011;7779;49.596;11.070;2023-06-22T10:20:50;4.20;;;3.83;;
15358;SDS011;7779;49.596;11.070;2023-06-22T10:23:17;5.37;;;3.57;;
15358;SDS011;7779;49.596;11.070;2023-06-22T10:25:44;4.27;;;3.87;;
15358;SDS011;7779;49.596;11.070;2023-06-22T10:28:10;4.17;;;3.70;;
15358;SDS011;7779;49.596;11.070;2023-06-22T10:30:38;5.90;;;4.13;;
15358;SDS011;7779;49.596;11.070;2023-06-22T10:33:08;4.30;;;3.90;;
15358;SDS011;7779;49.596;11.070;2023-06-22T10:35:35;4.87;;;3.83;;
15358;SDS011;7779;49.596;11.070;2023-06-22T10:38:04;3.97;;;3.63;;
15358;SDS011;7779;49.596;11.070;2023-06-22T10:40:31;6.20;;;3.77;;
15358;SDS011;7779;49.596;11.070;2023-06-22T10:42:57;5.57;;;4.10;;
15358;SDS011;7779;49.596;11.070;2023-06-22T10:45:22;6.50;;;4.10;;
15358;SDS011;7779;49.596;11.070;2023-06-22T10:47:48;8.17;;;4.03;;
15358;SDS011;7779;49.596;11.070;2023-06-22T10:50:14;5.10;;;3.97;;
15358;SDS011;7779;49.596;11.070;2023-06-22T10:52:40;4.17;;;3.87;;
15358;SDS011;7779;49.596;11.070;2023-06-22T10:55:09;4.57;;;3.73;;
15358;SDS011;7779;49.596;11.070;2023-06-22T10:57:35;3.93;;;3.50;;
15358;SDS011;7779;49.596;11.070;2023-06-22T11:00:02;4.23;;;3.83;;
15358;SDS011;7779;49.596;11.070;2023-06-22T11:02:31;4.30;;;3.90;;
15358;SDS011;7779;49.596;11.070;2023-06-22T11:04:57;4.77;;;3.87;;
15358;SDS011;7779;49.596;11.070;2023-06-22T11:07:25;4.67;;;3.40;;
15358;SDS011;7779;49.596;11.070;2023-06-22T11:09:54;3.80;;;3.50;;
15358;SDS011;7779;49.596;11.070;2023-06-22T11:12:20;4.33;;;3.93;;
15358;SDS011;7779;49.596;11.070;2023-06-22T11:14:46;5.13;;;3.90;;
15358;SDS011;7779;49.596;11.070;2023-06-22T11:17:12;5.23;;;4.03;;
15358;SDS011;7779;49.596;11.070;2023-06-22T11:19:38;5.10;;;4.00;;
15358;SDS011;7779;49.596;11.070;2023-06-22T11:22:03;4.03;;;3.63;;
15358;SDS011;7779;49.596;11.070;2023-06-22T11:24:29;5.40;;;4.27;;
15358;SDS011;7779;49.596;11.070;2023-06-22T11:26:55;8.90;;;4.10;;
15358;SDS011;7779;49.596;11.070;2023-06-22T11:29:21;4.07;;;3.63;;
15358;SDS011;7779;49.596;11.070;2023-06-22T11:31:47;5.10;;;3.90;;
15358;SDS011;7779;49.596;11.070;2023-06-22T11:34:12;5.47;;;3.77;;
15358;SDS011;7779;49.596;11.070;2023-06-22T11:36:38;4.10;;;3.70;;
15358;SDS011;7779;49.596;11.070;2023-06-22T11:39:04;4.43;;;4.03;;
15358;SDS011;7779;49.596;11.070;2023-06-22T11:41:30;5.17;;;4.40;;
15358;SDS011;7779;49.596;11.070;2023-06-22T11:43:55;5.67;;;3.90;;
15358;SDS011;7779;49.596;11.070;2023-06-22T11:46:21;5.53;;;3.70;;
15358;SDS011;7779;49.596;11.070;2023-06-22T11:48:47;4.43;;;4.03;;
15358;SDS011;7779;49.596;11.070;2023-06-22T11:51:12;5.50;;;4.03;;
15358;SDS011;7779;49.596;11.070;2023-06-22T11:53:38;4.00;;;3.57;;
15358;SDS011;7779;49.596;11.070;2023-06-22T11:56:04;5.07;;;3.70;;
15358;SDS011;7779;49.596;11.070;2023-06-22T11:58:30;4.10;;;3.53;;
15358;SDS011;7779;49.596;11.070;2023-06-22T12:00:55;5.10;;;4.00;;
15358;SDS011;7779;49.596;11.070;2023-06-22T12:03:21;5.83;;;4.07;;
15358;SDS011;7779;49.596;11.070;2023-06-22T12:05:47;5.73;;;3.80;;
15358;SDS011;7779;49.596;11.070;2023-06-22T12:08:16;4.70;;;3.83;;
15358;SDS011;7779;49.596;11.070;2023-06-22T12:10:42;7.30;;;3.90;;
15358;SDS011;7779;49.596;11.070;2023-06-22T12:13:08;5.33;;;3.87;;
15358;SDS011;7779;49.596;11.070;2023-06-22T12:15:33;4.60;;;3.80;;
15358;SDS011;7779;49.596;11.070;2023-06-22T12:17:59;5.17;;;3.87;;
15358;SDS011;7779;49.596;11.070;2023-06-22T12:20:26;5.07;;;3.80;;
15358;SDS011;7779;49.596;11.070;2023-06-22T12:22:51;4.07;;;3.63;;
15358;SDS011;7779;49.596;11.070;2023-06-22T12:25:19;4.80;;;3.83;;
15358;SDS011;7779;49.596;11.070;2023-06-22T12:27:45;5.93;;;3.57;;
15358;SDS011;7779;49.596;11.070;2023-06-22T12:30:10;3.93;;;3.53;;
15358;SDS011;7779;49.596;11.070;2023-06-22T12:32:36;3.97;;;3.40;;
15358;SDS011;7779;49.596;11.070;2023-06-22T12:35:02;4.70;;;3.80;;
15358;SDS011;7779;49.596;11.070;2023-06-22T12:37:28;5.47;;;3.73;;
15358;SDS011;7779;49.596;11.070;2023-06-22T12:39:54;4.63;;;3.93;;
15358;SDS011;7779;49.596;11.070;2023-06-22T12:42:20;5.00;;;4.20;;
15358;SDS011;7779;49.596;11.070;2023-06-22T12:44:46;5.60;;;4.00;;
15358;SDS011;7779;49.596;11.070;2023-06-22T12:47:11;4.23;;;3.83;;
15358;SDS011;7779;49.596;11.070;2023-06-22T12:49:38;5.97;;;4.20;;
15358;SDS011;7779;49.596;11.070;2023-06-22T12:52:08;5.50;;;4.10;;
15358;SDS011;7779;49.596;11.070;2023-06-22T12:54:35;5.90;;;4.33;;
15358;SDS011;7779;49.596;11.070;2023-06-22T12:57:01;5.70;;;3.80;;
15358;SDS011;7779;49.596;11.070;2023-06-22T12:59:27;4.37;;;3.90;;
15358;SDS011;7779;49.596;11.070;2023-06-22T13:01:53;5.17;;;3.97;;
15358;SDS011;7779;49.596;11.070;2023-06-22T13:04:18;5.37;;;3.97;;
15358;SDS011;7779;49.596;11.070;2023-06-22T13:06:46;3.97;;;3.57;;
15358;SDS011;7779;49.596;11.070;2023-06-22T13:09:13;4.73;;;3.97;;
15358;SDS011;7779;49.596;11.070;2023-06-22T13:11:40;4.30;;;3.90;;
15358;SDS011;7779;49.596;11.070;2023-06-22T13:14:07;4.90;;;3.83;;
15358;SDS011;7779;49.596;11.070;2023-06-22T13:16:33;8.90;;;4.53;;
15358;SDS011;7779;49.596;11.070;2023-06-22T13:18:59;5.57;;;4.00;;
15358;SDS011;7779;49.596;11.070;2023-06-22T13:21:24;5.17;;;3.80;;
15358;SDS011;7779;49.596;11.070;2023-06-22T13:23:50;4.10;;;3.63;;
15358;SDS011;7779;49.596;11.070;2023-06-22T13:26:16;5.23;;;4.17;;
15358;SDS011;7779;49.596;11.070;2023-06-22T13:28:41;6.47;;;4.37;;
15358;SDS011;7779;49.596;11.070;2023-06-22T13:31:07;4.32;;;3.92;;
15358;SDS011;7779;49.596;11.070;2023-06-22T13:33:33;5.00;;;3.97;;
15358;SDS011;7779;49.596;11.070;2023-06-22T13:35:59;6.55;;;4.65;;
15358;SDS011;7779;49.596;11.070;2023-06-22T13:38:24;4.57;;;4.03;;
15358;SDS011;7779;49.596;11.070;2023-06-22T13:40:50;5.15;;;3.90;;
15358;SDS011;7779;49.596;11.070;2023-06-22T13:43:16;5.93;;;4.00;;
15358;SDS011;7779;49.596;11.070;2023-06-22T13:45:42;8.60;;;4.40;;
15358;SDS011;7779;49.596;11.070;2023-06-22T13:48:08;4.30;;;3.90;;
15358;SDS011;7779;49.596;11.070;2023-06-22T13:50:34;5.20;;;4.07;;
15358;SDS011;7779;49.596;11.070;2023-06-22T13:53:00;6.15;;;4.20;;
15358;SDS011;7779;49.596;11.070;2023-06-22T13:55:26;5.22;;;3.97;;
15358;SDS011;7779;49.596;11.070;2023-06-22T13:57:52;4.80;;;4.30;;
15358;SDS011;7779;49.596;11.070;2023-06-22T14:00:18;5.20;;;3.85;;
15358;SDS011;7779;49.596;11.070;2023-06-22T14:02:45;5.07;;;4.13;;
15358;SDS011;7779;49.596;11.070;2023-06-22T14:05:10;5.30;;;4.03;;
15358;SDS011;7779;49.596;11.070;2023-06-22T14:07:36;6.80;;;4.03;;
15358;SDS011;7779;49.596;11.070;2023-06-22T14:10:03;4.83;;;3.93;;
15358;SDS011;7779;49.596;11.070;2023-06-22T14:12:29;6.43;;;3.90;;
15358;SDS011;7779;49.596;11.070;2023-06-22T14:14:55;6.20;;;3.70;;
15358;SDS011;7779;49.596;11.070;2023-06-22T14:17:20;4.25;;;3.85;;
15358;SDS011;7779;49.596;11.070;2023-06-22T14:19:50;4.30;;;3.90;;
15358;SDS011;7779;49.596;11.070;2023-06-22T14:22:20;5.22;;;3.75;;
15358;SDS011;7779;49.596;11.070;2023-06-22T14:24:47;5.10;;;4.20;;
15358;SDS011;7779;49.596;11.070;2023-06-22T14:27:13;4.43;;;3.87;;
15358;SDS011;7779;49.596;11.070;2023-06-22T14:29:40;7.45;;;4.38;;
15358;SDS011;7779;49.596;11.070;2023-06-22T14:32:06;5.95;;;3.90;;
15358;SDS011;7779;49.596;11.070;2023-06-22T14:34:33;4.80;;;4.10;;
15358;SDS011;7779;49.596;11.070;2023-06-22T14:37:01;5.00;;;3.85;;
15358;SDS011;7779;49.596;11.070;2023-06-22T14:39:28;6.90;;;4.20;;
15358;SDS011;7779;49.596;11.070;2023-06-22T14:41:53;5.27;;;3.93;;
15358;SDS011;7779;49.596;11.070;2023-06-22T14:44:19;5.70;;;3.97;;
15358;SDS011;7779;49.596;11.070;2023-06-22T14:46:45;4.95;;;3.67;;
15358;SDS011;7779;49.596;11.070;2023-06-22T14:49:11;4.47;;;4.00;;
15358;SDS011;7779;49.596;11.070;2023-06-22T14:51:37;8.18;;;3.70;;
15358;SDS011;7779;49.596;11.070;2023-06-22T14:54:02;6.20;;;3.53;;